sensor_id;sensor_type;location;lat;lon;timestamp;P1;durP1;ratioP1;P2;durP2;ratioP2
82176;SDS011;71758;48.714;9.584;2023-08-30T00:00:34;18.30;;;14.82;;
82176;SDS011;71758;48.714;9.584;2023-08-30T00:02:59;20.02;;;14.88;;
82176;SDS011;71758;48.714;9.584;2023-08-30T00:05:25;19.05;;;14.88;;
82176;SDS011;71758;48.714;9.584;2023-08-30T00:07:53;20.42;;;16.40;;
82176;SDS011;71758;48.714;9.584;2023-08-30T00:10:19;20.95;;;15.05;;
82176;SDS011;71758;48.714;9.584;2023-08-30T00:12:44;21.33;;;15.93;;
82176;SDS011;71758;48.714;9.584;2023-08-30T00:15:09;20.33;;;15.18;;
82176;SDS011;71758;48.714;9.584;2023-08-30T00:17:35;23.65;;;17.30;;
82176;SDS011;71758;48.714;9.584;2023-08-30T00:20:00;22.70;;;18.63;;
82176;SDS011;71758;48.714;9.584;2023-08-30T00:22:26;20.48;;;16.40;;
82176;SDS011;71758;48.714;9.584;2023-08-30T00:24:52;21.88;;;15.98;;
82176;SDS011;71758;48.714;9.584;2023-08-30T00:27:18;22.65;;;16.17;;
82176;SDS011;71758;48.714;9.584;2023-08-30T00:29:45;19.33;;;14.07;;
82176;SDS011;71758;48.714;9.584;2023-08-30T00:32:11;26.40;;;17.55;;
82176;SDS011;71758;48.714;9.584;2023-08-30T00:34:36;23.73;;;17.17;;
82176;SDS011;71758;48.714;9.584;2023-08-30T00:37:02;26.33;;;17.15;;
82176;SDS011;71758;48.714;9.584;2023-08-30T00:39:27;25.80;;;16.95;;
82176;SDS011;71758;48.714;9.584;2023-08-30T00:41:52;22.85;;;17.17;;
82176;SDS011;71758;48.714;9.584;2023-08-30T00:44:18;37.03;;;19.58;;
82176;SDS011;71758;48.714;9.584;2023-08-30T00:46:43;42.65;;;18.95;;
82176;SDS011;71758;48.714;9.584;2023-08-30T00:49:11;46.25;;;19.45;;
82176;SDS011;71758;48.714;9.584;2023-08-30T00:51:37;28.00;;;16.05;;
82176;SDS011;71758;48.714;9.584;2023-08-30T00:54:03;80.85;;;18.55;;
82176;SDS011;71758;48.714;9.584;2023-08-30T00:56:28;54.75;;;18.08;;
82176;SDS011;71758;48.714;9.584;2023-08-30T00:58:54;67.65;;;18.55;;
82176;SDS011;71758;48.714;9.584;2023-08-30T01:01:20;26.10;;;17.23;;
82176;SDS011;71758;48.714;9.584;2023-08-30T01:03:45;32.55;;;18.08;;
82176;SDS011;71758;48.714;9.584;2023-08-30T01:06:10;29.77;;;18.05;;
82176;SDS011;71758;48.714;9.584;2023-08-30T01:08:36;53.13;;;18.20;;
82176;SDS011;71758;48.714;9.584;2023-08-30T01:13:40;26.88;;;19.63;;
82176;SDS011;71758;48.714;9.584;2023-08-30T01:16:09;50.10;;;20.80;;
82176;SDS011;71758;48.714;9.584;2023-08-30T01:18:35;80.72;;;20.48;;
82176;SDS011;71758;48.714;9.584;2023-08-30T01:21:02;32.25;;;20.38;;
82176;SDS011;71758;48.714;9.584;2023-08-30T01:23:49;72.35;;;22.90;;
82176;SDS011;71758;48.714;9.584;2023-08-30T01:29:06;58.15;;;22.25;;
82176;SDS011;71758;48.714;9.584;2023-08-30T01:31:32;76.93;;;23.35;;
82176;SDS011;71758;48.714;9.584;2023-08-30T01:33:58;39.30;;;23.08;;
82176;SDS011;71758;48.714;9.584;2023-08-30T01:36:24;68.72;;;23.52;;
82176;SDS011;71758;48.714;9.584;2023-08-30T01:38:50;34.17;;;21.90;;
82176;SDS011;71758;48.714;9.584;2023-08-30T01:41:16;29.92;;;19.67;;
82176;SDS011;71758;48.714;9.584;2023-08-30T01:43:42;32.13;;;22.38;;
82176;SDS011;71758;48.714;9.584;2023-08-30T01:46:07;32.40;;;20.52;;
82176;SDS011;71758;48.714;9.584;2023-08-30T01:48:33;26.40;;;19.10;;
82176;SDS011;71758;48.714;9.584;2023-08-30T01:50:59;25.00;;;17.98;;
82176;SDS011;71758;48.714;9.584;2023-08-30T01:53:25;25.55;;;17.13;;
82176;SDS011;71758;48.714;9.584;2023-08-30T01:55:51;27.30;;;17.73;;
82176;SDS011;71758;48.714;9.584;2023-08-30T01:58:16;26.13;;;17.95;;
82176;SDS011;71758;48.714;9.584;2023-08-30T02:00:42;25.73;;;18.08;;
82176;SDS011;71758;48.714;9.584;2023-08-30T02:03:08;30.00;;;19.27;;
82176;SDS011;71758;48.714;9.584;2023-08-30T02:05:39;25.75;;;18.10;;
82176;SDS011;71758;48.714;9.584;2023-08-30T02:08:17;33.70;;;17.75;;
82176;SDS011;71758;48.714;9.584;2023-08-30T02:10:55;41.47;;;17.90;;
82176;SDS011;71758;48.714;9.584;2023-08-30T02:13:25;22.65;;;17.23;;
82176;SDS011;71758;48.714;9.584;2023-08-30T02:15:52;28.60;;;18.00;;
82176;SDS011;71758;48.714;9.584;2023-08-30T02:18:20;31.73;;;18.73;;
82176;SDS011;71758;48.714;9.584;2023-08-30T02:20:45;36.17;;;19.23;;
82176;SDS011;71758;48.714;9.584;2023-08-30T02:23:11;30.30;;;20.50;;
82176;SDS011;71758;48.714;9.584;2023-08-30T02:25:36;43.88;;;21.92;;
82176;SDS011;71758;48.714;9.584;2023-08-30T02:28:02;62.88;;;19.63;;
82176;SDS011;71758;48.714;9.584;2023-08-30T02:30:27;62.97;;;19.52;;
82176;SDS011;71758;48.714;9.584;2023-08-30T02:32:52;75.70;;;21.85;;
82176;SDS011;71758;48.714;9.584;2023-08-30T02:35:18;37.28;;;19.10;;
82176;SDS011;71758;48.714;9.584;2023-08-30T02:37:43;33.80;;;19.27;;
82176;SDS011;71758;48.714;9.584;2023-08-30T02:40:09;42.67;;;21.25;;
82176;SDS011;71758;48.714;9.584;2023-08-30T02:42:34;53.40;;;22.10;;
82176;SDS011;71758;48.714;9.584;2023-08-30T02:45:00;35.35;;;22.52;;
82176;SDS011;71758;48.714;9.584;2023-08-30T02:47:25;36.65;;;22.77;;
82176;SDS011;71758;48.714;9.584;2023-08-30T02:49:51;41.88;;;23.50;;
82176;SDS011;71758;48.714;9.584;2023-08-30T02:52:17;44.88;;;25.67;;
82176;SDS011;71758;48.714;9.584;2023-08-30T02:54:42;40.15;;;23.50;;
82176;SDS011;71758;48.714;9.584;2023-08-30T02:57:08;36.33;;;22.40;;
82176;SDS011;71758;48.714;9.584;2023-08-30T02:59:33;35.25;;;22.08;;
82176;SDS011;71758;48.714;9.584;2023-08-30T03:01:59;35.20;;;22.33;;
82176;SDS011;71758;48.714;9.584;2023-08-30T03:04:24;36.42;;;23.45;;
82176;SDS011;71758;48.714;9.584;2023-08-30T03:06:50;33.55;;;21.50;;
82176;SDS011;71758;48.714;9.584;2023-08-30T03:09:15;42.13;;;23.10;;
82176;SDS011;71758;48.714;9.584;2023-08-30T03:11:40;39.10;;;22.23;;
82176;SDS011;71758;48.714;9.584;2023-08-30T03:14:06;66.57;;;21.67;;
82176;SDS011;71758;48.714;9.584;2023-08-30T03:16:31;72.82;;;20.73;;
82176;SDS011;71758;48.714;9.584;2023-08-30T03:18:57;133.55;;;22.73;;
82176;SDS011;71758;48.714;9.584;2023-08-30T03:21:22;246.43;;;24.70;;
82176;SDS011;71758;48.714;9.584;2023-08-30T03:23:48;376.67;;;26.55;;
82176;SDS011;71758;48.714;9.584;2023-08-30T03:26:14;63.85;;;19.92;;
82176;SDS011;71758;48.714;9.584;2023-08-30T03:28:40;87.18;;;18.88;;
82176;SDS011;71758;48.714;9.584;2023-08-30T03:31:13;36.25;;;19.42;;
82176;SDS011;71758;48.714;9.584;2023-08-30T03:33:42;73.93;;;21.33;;
82176;SDS011;71758;48.714;9.584;2023-08-30T03:36:09;72.15;;;21.23;;
82176;SDS011;71758;48.714;9.584;2023-08-30T03:38:35;33.13;;;19.10;;
82176;SDS011;71758;48.714;9.584;2023-08-30T03:41:00;27.27;;;17.83;;
82176;SDS011;71758;48.714;9.584;2023-08-30T03:43:26;24.90;;;17.90;;
82176;SDS011;71758;48.714;9.584;2023-08-30T03:45:52;31.33;;;20.17;;
82176;SDS011;71758;48.714;9.584;2023-08-30T03:48:17;29.50;;;20.00;;
82176;SDS011;71758;48.714;9.584;2023-08-30T03:50:43;33.67;;;20.02;;
82176;SDS011;71758;48.714;9.584;2023-08-30T03:53:08;38.17;;;20.15;;
82176;SDS011;71758;48.714;9.584;2023-08-30T03:55:33;43.55;;;21.85;;
82176;SDS011;71758;48.714;9.584;2023-08-30T03:57:59;34.60;;;21.70;;
82176;SDS011;71758;48.714;9.584;2023-08-30T04:00:24;33.55;;;20.23;;
82176;SDS011;71758;48.714;9.584;2023-08-30T04:02:50;28.50;;;19.65;;
82176;SDS011;71758;48.714;9.584;2023-08-30T04:05:15;27.80;;;18.60;;
82176;SDS011;71758;48.714;9.584;2023-08-30T04:07:40;28.00;;;19.25;;
82176;SDS011;71758;48.714;9.584;2023-08-30T04:10:06;26.23;;;18.15;;
82176;SDS011;71758;48.714;9.584;2023-08-30T04:12:32;24.17;;;17.50;;
82176;SDS011;71758;48.714;9.584;2023-08-30T04:14:59;23.52;;;17.80;;
82176;SDS011;71758;48.714;9.584;2023-08-30T04:17:25;24.50;;;17.23;;
82176;SDS011;71758;48.714;9.584;2023-08-30T04:19:53;23.88;;;17.60;;
82176;SDS011;71758;48.714;9.584;2023-08-30T04:22:19;22.98;;;17.42;;
82176;SDS011;71758;48.714;9.584;2023-08-30T04:24:45;24.92;;;16.95;;
82176;SDS011;71758;48.714;9.584;2023-08-30T04:27:11;23.88;;;17.65;;
82176;SDS011;71758;48.714;9.584;2023-08-30T04:29:36;27.70;;;18.40;;
82176;SDS011;71758;48.714;9.584;2023-08-30T04:32:01;23.85;;;17.25;;
82176;SDS011;71758;48.714;9.584;2023-08-30T04:34:27;25.23;;;17.95;;
82176;SDS011;71758;48.714;9.584;2023-08-30T04:36:52;23.42;;;17.63;;
82176;SDS011;71758;48.714;9.584;2023-08-30T04:39:17;23.60;;;17.70;;
82176;SDS011;71758;48.714;9.584;2023-08-30T04:41:43;26.30;;;17.33;;
82176;SDS011;71758;48.714;9.584;2023-08-30T04:44:08;27.40;;;18.60;;
82176;SDS011;71758;48.714;9.584;2023-08-30T04:46:34;29.45;;;18.20;;
82176;SDS011;71758;48.714;9.584;2023-08-30T04:48:59;29.40;;;17.73;;
82176;SDS011;71758;48.714;9.584;2023-08-30T04:51:24;25.52;;;17.15;;
82176;SDS011;71758;48.714;9.584;2023-08-30T04:53:50;32.45;;;19.92;;
82176;SDS011;71758;48.714;9.584;2023-08-30T04:56:15;33.28;;;19.67;;
82176;SDS011;71758;48.714;9.584;2023-08-30T04:58:43;31.50;;;18.63;;
82176;SDS011;71758;48.714;9.584;2023-08-30T05:01:09;29.85;;;18.98;;
82176;SDS011;71758;48.714;9.584;2023-08-30T05:03:34;27.17;;;19.73;;
82176;SDS011;71758;48.714;9.584;2023-08-30T05:06:00;24.95;;;18.88;;
82176;SDS011;71758;48.714;9.584;2023-08-30T05:08:25;28.27;;;19.80;;
82176;SDS011;71758;48.714;9.584;2023-08-30T05:10:53;27.02;;;18.13;;
82176;SDS011;71758;48.714;9.584;2023-08-30T05:13:19;25.02;;;18.08;;
82176;SDS011;71758;48.714;9.584;2023-08-30T05:15:45;24.38;;;17.60;;
82176;SDS011;71758;48.714;9.584;2023-08-30T05:18:10;26.33;;;18.42;;
82176;SDS011;71758;48.714;9.584;2023-08-30T05:20:36;23.55;;;17.15;;
82176;SDS011;71758;48.714;9.584;2023-08-30T05:23:01;24.25;;;17.85;;
82176;SDS011;71758;48.714;9.584;2023-08-30T05:25:27;23.92;;;18.48;;
82176;SDS011;71758;48.714;9.584;2023-08-30T05:27:53;23.80;;;17.48;;
82176;SDS011;71758;48.714;9.584;2023-08-30T05:30:18;25.13;;;17.42;;
82176;SDS011;71758;48.714;9.584;2023-08-30T05:32:44;24.38;;;18.15;;
82176;SDS011;71758;48.714;9.584;2023-08-30T05:35:09;24.92;;;16.90;;
82176;SDS011;71758;48.714;9.584;2023-08-30T05:37:35;23.48;;;16.95;;
82176;SDS011;71758;48.714;9.584;2023-08-30T05:40:00;22.48;;;16.73;;
82176;SDS011;71758;48.714;9.584;2023-08-30T05:42:25;25.35;;;17.60;;
82176;SDS011;71758;48.714;9.584;2023-08-30T05:44:52;25.13;;;17.80;;
82176;SDS011;71758;48.714;9.584;2023-08-30T05:47:18;25.40;;;18.65;;
82176;SDS011;71758;48.714;9.584;2023-08-30T05:49:44;24.45;;;17.10;;
82176;SDS011;71758;48.714;9.584;2023-08-30T05:52:09;23.77;;;17.52;;
82176;SDS011;71758;48.714;9.584;2023-08-30T05:54:35;25.85;;;20.25;;
82176;SDS011;71758;48.714;9.584;2023-08-30T05:57:00;24.80;;;18.15;;
82176;SDS011;71758;48.714;9.584;2023-08-30T05:59:25;24.45;;;17.17;;
82176;SDS011;71758;48.714;9.584;2023-08-30T06:01:51;21.73;;;16.27;;
82176;SDS011;71758;48.714;9.584;2023-08-30T06:04:16;19.15;;;15.23;;
82176;SDS011;71758;48.714;9.584;2023-08-30T06:06:42;18.50;;;14.77;;
82176;SDS011;71758;48.714;9.584;2023-08-30T06:09:07;25.55;;;18.08;;
82176;SDS011;71758;48.714;9.584;2023-08-30T06:11:32;23.25;;;16.17;;
82176;SDS011;71758;48.714;9.584;2023-08-30T06:13:58;21.10;;;15.77;;
82176;SDS011;71758;48.714;9.584;2023-08-30T06:16:26;21.05;;;15.20;;
82176;SDS011;71758;48.714;9.584;2023-08-30T06:18:52;24.33;;;18.77;;
82176;SDS011;71758;48.714;9.584;2023-08-30T06:21:17;19.35;;;14.93;;
82176;SDS011;71758;48.714;9.584;2023-08-30T06:23:42;21.85;;;16.23;;
82176;SDS011;71758;48.714;9.584;2023-08-30T06:26:08;22.27;;;15.45;;
82176;SDS011;71758;48.714;9.584;2023-08-30T06:28:33;19.45;;;14.43;;
82176;SDS011;71758;48.714;9.584;2023-08-30T06:30:59;18.23;;;14.35;;
82176;SDS011;71758;48.714;9.584;2023-08-30T06:33:24;14.80;;;12.63;;
82176;SDS011;71758;48.714;9.584;2023-08-30T06:35:49;15.43;;;12.73;;
82176;SDS011;71758;48.714;9.584;2023-08-30T06:38:18;15.90;;;13.07;;
82176;SDS011;71758;48.714;9.584;2023-08-30T06:40:45;16.98;;;13.85;;
82176;SDS011;71758;48.714;9.584;2023-08-30T06:43:11;17.88;;;14.50;;
82176;SDS011;71758;48.714;9.584;2023-08-30T06:45:37;16.40;;;13.32;;
82176;SDS011;71758;48.714;9.584;2023-08-30T06:48:03;17.42;;;13.15;;
82176;SDS011;71758;48.714;9.584;2023-08-30T06:50:29;16.17;;;11.45;;
82176;SDS011;71758;48.714;9.584;2023-08-30T06:52:55;13.02;;;11.25;;
82176;SDS011;71758;48.714;9.584;2023-08-30T06:55:21;13.77;;;10.45;;
82176;SDS011;71758;48.714;9.584;2023-08-30T06:57:47;13.45;;;10.63;;
82176;SDS011;71758;48.714;9.584;2023-08-30T07:00:13;12.98;;;10.95;;
82176;SDS011;71758;48.714;9.584;2023-08-30T07:02:39;13.32;;;10.30;;
82176;SDS011;71758;48.714;9.584;2023-08-30T07:05:04;11.90;;;9.95;;
82176;SDS011;71758;48.714;9.584;2023-08-30T07:07:31;13.18;;;9.52;;
82176;SDS011;71758;48.714;9.584;2023-08-30T07:09:57;12.32;;;9.85;;
82176;SDS011;71758;48.714;9.584;2023-08-30T07:12:22;13.20;;;9.48;;
82176;SDS011;71758;48.714;9.584;2023-08-30T07:14:47;11.48;;;9.50;;
82176;SDS011;71758;48.714;9.584;2023-08-30T07:17:13;13.93;;;10.15;;
82176;SDS011;71758;48.714;9.584;2023-08-30T07:19:38;13.40;;;10.32;;
82176;SDS011;71758;48.714;9.584;2023-08-30T07:22:04;13.70;;;10.32;;
82176;SDS011;71758;48.714;9.584;2023-08-30T07:24:29;11.40;;;8.77;;
82176;SDS011;71758;48.714;9.584;2023-08-30T07:26:55;11.80;;;8.68;;
82176;SDS011;71758;48.714;9.584;2023-08-30T07:29:20;12.18;;;8.02;;
82176;SDS011;71758;48.714;9.584;2023-08-30T07:31:46;12.02;;;8.27;;
82176;SDS011;71758;48.714;9.584;2023-08-30T07:34:12;9.18;;;7.50;;
82176;SDS011;71758;48.714;9.584;2023-08-30T07:36:37;8.80;;;7.28;;
82176;SDS011;71758;48.714;9.584;2023-08-30T07:39:03;10.52;;;7.68;;
82176;SDS011;71758;48.714;9.584;2023-08-30T07:41:28;8.90;;;6.97;;
82176;SDS011;71758;48.714;9.584;2023-08-30T07:43:54;9.23;;;7.38;;
82176;SDS011;71758;48.714;9.584;2023-08-30T07:46:19;10.25;;;7.43;;
82176;SDS011;71758;48.714;9.584;2023-08-30T07:48:45;14.77;;;8.38;;
82176;SDS011;71758;48.714;9.584;2023-08-30T07:51:10;10.35;;;8.18;;
82176;SDS011;71758;48.714;9.584;2023-08-30T07:53:35;11.13;;;8.10;;
82176;SDS011;71758;48.714;9.584;2023-08-30T07:56:01;10.13;;;7.57;;
82176;SDS011;71758;48.714;9.584;2023-08-30T07:58:26;9.52;;;7.75;;
82176;SDS011;71758;48.714;9.584;2023-08-30T08:00:52;9.30;;;7.20;;
82176;SDS011;71758;48.714;9.584;2023-08-30T08:03:18;12.48;;;9.40;;
82176;SDS011;71758;48.714;9.584;2023-08-30T08:05:44;11.32;;;7.72;;
82176;SDS011;71758;48.714;9.584;2023-08-30T08:08:09;10.20;;;8.68;;
82176;SDS011;71758;48.714;9.584;2023-08-30T08:10:36;12.10;;;8.63;;
82176;SDS011;71758;48.714;9.584;2023-08-30T08:13:01;11.80;;;9.82;;
82176;SDS011;71758;48.714;9.584;2023-08-30T08:15:29;11.30;;;8.70;;
82176;SDS011;71758;48.714;9.584;2023-08-30T08:17:56;12.32;;;9.30;;
82176;SDS011;71758;48.714;9.584;2023-08-30T08:20:21;10.75;;;7.97;;
82176;SDS011;71758;48.714;9.584;2023-08-30T08:22:47;9.35;;;7.95;;
82176;SDS011;71758;48.714;9.584;2023-08-30T08:25:12;11.88;;;8.00;;
82176;SDS011;71758;48.714;9.584;2023-08-30T08:27:38;12.43;;;8.43;;
82176;SDS011;71758;48.714;9.584;2023-08-30T08:30:04;13.38;;;7.82;;
82176;SDS011;71758;48.714;9.584;2023-08-30T08:32:30;11.82;;;8.55;;
82176;SDS011;71758;48.714;9.584;2023-08-30T08:34:56;12.90;;;8.48;;
82176;SDS011;71758;48.714;9.584;2023-08-30T08:37:22;9.07;;;7.75;;
82176;SDS011;71758;48.714;9.584;2023-08-30T08:39:47;10.18;;;7.28;;
82176;SDS011;71758;48.714;9.584;2023-08-30T08:42:17;8.68;;;7.55;;
82176;SDS011;71758;48.714;9.584;2023-08-30T08:44:43;9.50;;;7.40;;
82176;SDS011;71758;48.714;9.584;2023-08-30T08:47:11;10.15;;;7.13;;
82176;SDS011;71758;48.714;9.584;2023-08-30T08:49:36;10.25;;;7.00;;
82176;SDS011;71758;48.714;9.584;2023-08-30T08:52:02;10.35;;;7.15;;
82176;SDS011;71758;48.714;9.584;2023-08-30T08:54:28;11.07;;;6.95;;
82176;SDS011;71758;48.714;9.584;2023-08-30T08:56:54;10.75;;;6.53;;
82176;SDS011;71758;48.714;9.584;2023-08-30T08:59:20;7.85;;;6.65;;
82176;SDS011;71758;48.714;9.584;2023-08-30T09:01:46;8.82;;;6.50;;
82176;SDS011;71758;48.714;9.584;2023-08-30T09:04:12;7.90;;;6.50;;
82176;SDS011;71758;48.714;9.584;2023-08-30T09:06:38;9.13;;;6.13;;
82176;SDS011;71758;48.714;9.584;2023-08-30T09:09:08;9.20;;;6.70;;
82176;SDS011;71758;48.714;9.584;2023-08-30T09:11:33;8.02;;;6.18;;
82176;SDS011;71758;48.714;9.584;2023-08-30T09:13:59;8.75;;;6.10;;
82176;SDS011;71758;48.714;9.584;2023-08-30T09:16:25;8.15;;;6.43;;
82176;SDS011;71758;48.714;9.584;2023-08-30T09:19:00;10.45;;;6.43;;
82176;SDS011;71758;48.714;9.584;2023-08-30T09:21:29;8.40;;;7.07;;
82176;SDS011;71758;48.714;9.584;2023-08-30T09:24:01;9.35;;;5.80;;
82176;SDS011;71758;48.714;9.584;2023-08-30T09:26:28;7.25;;;5.70;;
82176;SDS011;71758;48.714;9.584;2023-08-30T09:29:16;10.05;;;7.00;;
82176;SDS011;71758;48.714;9.584;2023-08-30T09:31:41;7.68;;;6.38;;
82176;SDS011;71758;48.714;9.584;2023-08-30T09:34:06;7.25;;;5.45;;
82176;SDS011;71758;48.714;9.584;2023-08-30T09:36:36;8.93;;;6.55;;
82176;SDS011;71758;48.714;9.584;2023-08-30T09:39:12;9.73;;;6.13;;
82176;SDS011;71758;48.714;9.584;2023-08-30T09:41:42;8.38;;;6.32;;
82176;SDS011;71758;48.714;9.584;2023-08-30T09:44:17;8.65;;;6.03;;
82176;SDS011;71758;48.714;9.584;2023-08-30T09:46:53;6.65;;;5.22;;
82176;SDS011;71758;48.714;9.584;2023-08-30T09:49:20;9.13;;;4.88;;
82176;SDS011;71758;48.714;9.584;2023-08-30T09:51:48;13.32;;;5.25;;
82176;SDS011;71758;48.714;9.584;2023-08-30T09:54:18;9.88;;;5.40;;
82176;SDS011;71758;48.714;9.584;2023-08-30T09:56:45;6.00;;;4.63;;
82176;SDS011;71758;48.714;9.584;2023-08-30T09:59:13;8.07;;;5.35;;
82176;SDS011;71758;48.714;9.584;2023-08-30T10:01:42;8.13;;;5.15;;
82176;SDS011;71758;48.714;9.584;2023-08-30T10:04:08;10.00;;;5.00;;
82176;SDS011;71758;48.714;9.584;2023-08-30T10:06:35;6.57;;;4.70;;
82176;SDS011;71758;48.714;9.584;2023-08-30T10:09:00;6.40;;;4.55;;
82176;SDS011;71758;48.714;9.584;2023-08-30T10:11:28;7.60;;;5.18;;
82176;SDS011;71758;48.714;9.584;2023-08-30T10:13:54;6.32;;;4.65;;
82176;SDS011;71758;48.714;9.584;2023-08-30T10:16:20;10.43;;;5.13;;
82176;SDS011;71758;48.714;9.584;2023-08-30T10:18:50;7.63;;;4.90;;
82176;SDS011;71758;48.714;9.584;2023-08-30T10:21:19;7.35;;;4.53;;
82176;SDS011;71758;48.714;9.584;2023-08-30T10:23:45;6.47;;;4.13;;
82176;SDS011;71758;48.714;9.584;2023-08-30T10:26:12;8.82;;;4.25;;
82176;SDS011;71758;48.714;9.584;2023-08-30T10:28:39;6.93;;;4.00;;
82176;SDS011;71758;48.714;9.584;2023-08-30T10:31:05;6.50;;;4.65;;
82176;SDS011;71758;48.714;9.584;2023-08-30T10:33:30;5.65;;;3.30;;
82176;SDS011;71758;48.714;9.584;2023-08-30T10:36:02;4.72;;;3.10;;
82176;SDS011;71758;48.714;9.584;2023-08-30T10:38:31;7.55;;;3.38;;
82176;SDS011;71758;48.714;9.584;2023-08-30T10:41:07;4.90;;;2.80;;
82176;SDS011;71758;48.714;9.584;2023-08-30T10:43:35;4.32;;;2.38;;
82176;SDS011;71758;48.714;9.584;2023-08-30T10:46:02;5.03;;;2.40;;
82176;SDS011;71758;48.714;9.584;2023-08-30T10:48:37;3.58;;;2.20;;
82176;SDS011;71758;48.714;9.584;2023-08-30T10:51:05;4.80;;;1.88;;
82176;SDS011;71758;48.714;9.584;2023-08-30T10:53:36;5.07;;;3.15;;
82176;SDS011;71758;48.714;9.584;2023-08-30T10:56:09;4.30;;;2.80;;
82176;SDS011;71758;48.714;9.584;2023-08-30T10:58:38;4.72;;;2.75;;
82176;SDS011;71758;48.714;9.584;2023-08-30T11:01:09;6.68;;;2.40;;
82176;SDS011;71758;48.714;9.584;2023-08-30T11:03:37;5.05;;;2.53;;
82176;SDS011;71758;48.714;9.584;2023-08-30T11:06:03;4.18;;;2.20;;
82176;SDS011;71758;48.714;9.584;2023-08-30T11:08:28;4.50;;;1.95;;
82176;SDS011;71758;48.714;9.584;2023-08-30T11:11:03;4.55;;;2.45;;
82176;SDS011;71758;48.714;9.584;2023-08-30T11:13:30;4.00;;;2.42;;
82176;SDS011;71758;48.714;9.584;2023-08-30T11:15:59;6.20;;;2.95;;
82176;SDS011;71758;48.714;9.584;2023-08-30T11:18:29;5.00;;;2.40;;
82176;SDS011;71758;48.714;9.584;2023-08-30T11:21:01;3.28;;;1.65;;
82176;SDS011;71758;48.714;9.584;2023-08-30T11:23:26;5.07;;;2.38;;
82176;SDS011;71758;48.714;9.584;2023-08-30T11:25:52;5.00;;;1.95;;
82176;SDS011;71758;48.714;9.584;2023-08-30T11:28:21;4.20;;;1.95;;
82176;SDS011;71758;48.714;9.584;2023-08-30T11:30:47;4.25;;;1.73;;
82176;SDS011;71758;48.714;9.584;2023-08-30T11:33:13;3.65;;;1.90;;
82176;SDS011;71758;48.714;9.584;2023-08-30T11:35:42;4.45;;;2.05;;
82176;SDS011;71758;48.714;9.584;2023-08-30T11:38:07;4.90;;;2.25;;
82176;SDS011;71758;48.714;9.584;2023-08-30T11:40:32;5.75;;;1.95;;
82176;SDS011;71758;48.714;9.584;2023-08-30T11:43:00;4.88;;;1.80;;
82176;SDS011;71758;48.714;9.584;2023-08-30T11:45:26;3.08;;;1.52;;
82176;SDS011;71758;48.714;9.584;2023-08-30T11:47:51;2.92;;;1.30;;
82176;SDS011;71758;48.714;9.584;2023-08-30T11:50:18;4.07;;;1.70;;
82176;SDS011;71758;48.714;9.584;2023-08-30T11:52:45;3.40;;;1.40;;
82176;SDS011;71758;48.714;9.584;2023-08-30T11:55:11;4.22;;;1.65;;
82176;SDS011;71758;48.714;9.584;2023-08-30T11:57:37;5.18;;;1.80;;
82176;SDS011;71758;48.714;9.584;2023-08-30T12:00:09;3.75;;;1.83;;
82176;SDS011;71758;48.714;9.584;2023-08-30T12:02:35;3.03;;;1.52;;
82176;SDS011;71758;48.714;9.584;2023-08-30T12:05:01;5.05;;;1.65;;
82176;SDS011;71758;48.714;9.584;2023-08-30T12:07:26;4.18;;;1.30;;
82176;SDS011;71758;48.714;9.584;2023-08-30T12:09:52;3.50;;;1.95;;
82176;SDS011;71758;48.714;9.584;2023-08-30T12:12:17;3.58;;;1.73;;
82176;SDS011;71758;48.714;9.584;2023-08-30T12:14:43;3.83;;;1.40;;
82176;SDS011;71758;48.714;9.584;2023-08-30T12:17:08;3.58;;;1.70;;
82176;SDS011;71758;48.714;9.584;2023-08-30T12:19:36;2.95;;;1.58;;
82176;SDS011;71758;48.714;9.584;2023-08-30T12:22:04;4.88;;;1.80;;
82176;SDS011;71758;48.714;9.584;2023-08-30T12:24:40;3.70;;;1.65;;
82176;SDS011;71758;48.714;9.584;2023-08-30T12:27:08;3.95;;;1.20;;
82176;SDS011;71758;48.714;9.584;2023-08-30T12:29:34;4.15;;;1.60;;
82176;SDS011;71758;48.714;9.584;2023-08-30T12:31:59;4.20;;;1.40;;
82176;SDS011;71758;48.714;9.584;2023-08-30T12:34:25;6.35;;;1.42;;
82176;SDS011;71758;48.714;9.584;2023-08-30T12:36:50;3.35;;;1.30;;
82176;SDS011;71758;48.714;9.584;2023-08-30T12:39:16;3.70;;;1.17;;
82176;SDS011;71758;48.714;9.584;2023-08-30T12:41:41;2.83;;;1.20;;
82176;SDS011;71758;48.714;9.584;2023-08-30T12:44:07;4.15;;;1.15;;
82176;SDS011;71758;48.714;9.584;2023-08-30T12:46:33;3.17;;;1.20;;
82176;SDS011;71758;48.714;9.584;2023-08-30T12:48:58;2.88;;;1.10;;
82176;SDS011;71758;48.714;9.584;2023-08-30T12:51:24;2.53;;;0.90;;
82176;SDS011;71758;48.714;9.584;2023-08-30T12:53:49;3.08;;;0.93;;
82176;SDS011;71758;48.714;9.584;2023-08-30T12:56:14;3.15;;;1.25;;
82176;SDS011;71758;48.714;9.584;2023-08-30T12:58:40;3.47;;;1.10;;
82176;SDS011;71758;48.714;9.584;2023-08-30T13:01:05;2.70;;;1.00;;
82176;SDS011;71758;48.714;9.584;2023-08-30T13:03:30;2.97;;;1.30;;
82176;SDS011;71758;48.714;9.584;2023-08-30T13:05:56;2.85;;;1.15;;
82176;SDS011;71758;48.714;9.584;2023-08-30T13:08:23;3.72;;;1.20;;
82176;SDS011;71758;48.714;9.584;2023-08-30T13:10:49;3.88;;;1.30;;
82176;SDS011;71758;48.714;9.584;2023-08-30T13:13:14;7.60;;;1.50;;
82176;SDS011;71758;48.714;9.584;2023-08-30T13:15:40;3.30;;;1.58;;
82176;SDS011;71758;48.714;9.584;2023-08-30T13:18:05;3.38;;;1.50;;
82176;SDS011;71758;48.714;9.584;2023-08-30T13:20:31;3.25;;;1.50;;
82176;SDS011;71758;48.714;9.584;2023-08-30T13:22:56;5.07;;;1.40;;
82176;SDS011;71758;48.714;9.584;2023-08-30T13:25:22;4.25;;;1.50;;
82176;SDS011;71758;48.714;9.584;2023-08-30T13:27:47;3.70;;;1.40;;
82176;SDS011;71758;48.714;9.584;2023-08-30T13:30:13;3.80;;;1.70;;
82176;SDS011;71758;48.714;9.584;2023-08-30T13:32:38;3.80;;;1.40;;
82176;SDS011;71758;48.714;9.584;2023-08-30T13:35:03;4.90;;;1.63;;
82176;SDS011;71758;48.714;9.584;2023-08-30T13:37:29;4.47;;;1.65;;
82176;SDS011;71758;48.714;9.584;2023-08-30T13:39:54;3.95;;;1.70;;
82176;SDS011;71758;48.714;9.584;2023-08-30T13:42:20;3.90;;;1.90;;
82176;SDS011;71758;48.714;9.584;2023-08-30T13:44:46;3.85;;;1.80;;
82176;SDS011;71758;48.714;9.584;2023-08-30T13:47:12;3.70;;;1.70;;
82176;SDS011;71758;48.714;9.584;2023-08-30T13:49:37;4.63;;;1.63;;
82176;SDS011;71758;48.714;9.584;2023-08-30T13:52:02;4.75;;;1.70;;
82176;SDS011;71758;48.714;9.584;2023-08-30T13:54:28;3.40;;;1.77;;
82176;SDS011;71758;48.714;9.584;2023-08-30T13:56:56;4.32;;;1.65;;
82176;SDS011;71758;48.714;9.584;2023-08-30T14:01:48;3.53;;;1.60;;
82176;SDS011;71758;48.714;9.584;2023-08-30T14:04:13;3.38;;;1.42;;
82176;SDS011;71758;48.714;9.584;2023-08-30T14:06:39;4.53;;;1.60;;
82176;SDS011;71758;48.714;9.584;2023-08-30T14:09:04;3.67;;;1.75;;
82176;SDS011;71758;48.714;9.584;2023-08-30T14:11:33;3.70;;;1.80;;
82176;SDS011;71758;48.714;9.584;2023-08-30T14:14:00;2.90;;;1.35;;
82176;SDS011;71758;48.714;9.584;2023-08-30T14:16:26;3.78;;;1.83;;
82176;SDS011;71758;48.714;9.584;2023-08-30T14:18:51;4.20;;;1.60;;
82176;SDS011;71758;48.714;9.584;2023-08-30T14:21:17;3.40;;;1.63;;
82176;SDS011;71758;48.714;9.584;2023-08-30T14:23:42;5.05;;;2.22;;
82176;SDS011;71758;48.714;9.584;2023-08-30T14:26:08;3.38;;;1.48;;
82176;SDS011;71758;48.714;9.584;2023-08-30T14:28:38;4.50;;;1.50;;
82176;SDS011;71758;48.714;9.584;2023-08-30T14:31:10;3.72;;;1.65;;
82176;SDS011;71758;48.714;9.584;2023-08-30T14:33:37;3.08;;;1.25;;
82176;SDS011;71758;48.714;9.584;2023-08-30T14:36:03;3.58;;;1.90;;